AUR4LC EGJB-EGKK
Flight info
| Callsign | AUR4LC |
|---|---|
| Flight time | 0h 30m |
| Altitude | 23000 |
| Route | ORIST L982 VASUX VASU1G |
| Aircraft | E195/M-V/N |
Departure
| Time | 2026-05-05 18:57 |
|---|---|
| Airport | Guernsey Airport (EGJB) |
Arrival
| Time | 2026-05-05 19:28 |
|---|---|
| Airport | London Gatwick Airport (EGKK) |
| Time | Latitude | Longitude | Altitude | Speed | Heading |
|---|---|---|---|---|---|
| 2026-05-05 18:57 | 49.49985 | -2.71487 | 6241 ft | 220 kts | 22° |
| 2026-05-05 18:57 | 49.51460 | -2.70578 | 6694 ft | 238 kts | 20° |
| 2026-05-05 18:58 | 49.53067 | -2.69647 | 7147 ft | 255 kts | 20° |
| 2026-05-05 18:58 | 49.54762 | -2.68644 | 7777 ft | 265 kts | 20° |
| 2026-05-05 18:58 | 49.56487 | -2.67603 | 8570 ft | 268 kts | 20° |
| 2026-05-05 18:58 | 49.58232 | -2.66542 | 9399 ft | 272 kts | 20° |
| 2026-05-05 18:59 | 49.60006 | -2.65461 | 10208 ft | 276 kts | 21° |
| 2026-05-05 18:59 | 49.61798 | -2.64371 | 11014 ft | 279 kts | 21° |
| 2026-05-05 18:59 | 49.63616 | -2.63266 | 11874 ft | 283 kts | 21° |
| 2026-05-05 18:59 | 49.65457 | -2.62144 | 12742 ft | 287 kts | 21° |
| 2026-05-05 19:00 | 49.67324 | -2.61005 | 13652 ft | 291 kts | 21° |
| 2026-05-05 19:00 | 49.69213 | -2.59815 | 14470 ft | 297 kts | 25° |
| 2026-05-05 19:00 | 49.70956 | -2.57915 | 14817 ft | 320 kts | 46° |
| 2026-05-05 19:00 | 49.72268 | -2.55001 | 15298 ft | 338 kts | 57° |
| 2026-05-05 19:01 | 49.73505 | -2.51879 | 16111 ft | 343 kts | 57° |
| 2026-05-05 19:01 | 49.74779 | -2.48738 | 16993 ft | 346 kts | 57° |
| 2026-05-05 19:01 | 49.76067 | -2.45578 | 17863 ft | 350 kts | 57° |
| 2026-05-05 19:01 | 49.77370 | -2.42369 | 18654 ft | 354 kts | 57° |
| 2026-05-05 19:02 | 49.78680 | -2.39113 | 19369 ft | 359 kts | 57° |
| 2026-05-05 19:02 | 49.80004 | -2.35808 | 20082 ft | 363 kts | 57° |
| 2026-05-05 19:02 | 49.81340 | -2.32457 | 20737 ft | 368 kts | 57° |
| 2026-05-05 19:02 | 49.82686 | -2.29060 | 21384 ft | 373 kts | 57° |
| 2026-05-05 19:03 | 49.84048 | -2.25615 | 22012 ft | 377 kts | 57° |
| 2026-05-05 19:03 | 49.85421 | -2.22124 | 22619 ft | 381 kts | 58° |
| 2026-05-05 19:03 | 49.86805 | -2.18593 | 23072 ft | 389 kts | 58° |
| 2026-05-05 19:03 | 49.88204 | -2.15001 | 23034 ft | 388 kts | 58° |
| 2026-05-05 19:04 | 49.89590 | -2.11411 | 22983 ft | 388 kts | 58° |
| 2026-05-05 19:04 | 49.90973 | -2.07827 | 22923 ft | 387 kts | 58° |
| 2026-05-05 19:04 | 49.92339 | -2.04294 | 22929 ft | 387 kts | 58° |
| 2026-05-05 19:04 | 49.93721 | -2.00715 | 22926 ft | 387 kts | 58° |
| 2026-05-05 19:05 | 49.95109 | -1.97123 | 22927 ft | 388 kts | 58° |
| 2026-05-05 19:05 | 49.96499 | -1.93532 | 22930 ft | 388 kts | 58° |
| 2026-05-05 19:05 | 49.97886 | -1.89941 | 22933 ft | 388 kts | 58° |
| 2026-05-05 19:05 | 49.99273 | -1.86342 | 22929 ft | 388 kts | 57° |
| 2026-05-05 19:06 | 50.00950 | -1.83091 | 22940 ft | 387 kts | 43° |
| 2026-05-05 19:06 | 50.02971 | -1.80328 | 22947 ft | 387 kts | 39° |
| 2026-05-05 19:06 | 50.05038 | -1.77647 | 22916 ft | 387 kts | 39° |
| 2026-05-05 19:06 | 50.07104 | -1.74963 | 22919 ft | 387 kts | 39° |
| 2026-05-05 19:07 | 50.09164 | -1.72272 | 22925 ft | 387 kts | 39° |
| 2026-05-05 19:07 | 50.11225 | -1.69572 | 22927 ft | 387 kts | 39° |
| 2026-05-05 19:07 | 50.13284 | -1.66862 | 22921 ft | 388 kts | 39° |
| 2026-05-05 19:07 | 50.15345 | -1.64147 | 22902 ft | 388 kts | 39° |
| 2026-05-05 19:08 | 50.17422 | -1.61411 | 22477 ft | 391 kts | 39° |
| 2026-05-05 19:08 | 50.19496 | -1.58681 | 22107 ft | 389 kts | 39° |
| 2026-05-05 19:08 | 50.21561 | -1.55956 | 21823 ft | 389 kts | 39° |
| 2026-05-05 19:08 | 50.23624 | -1.53227 | 21559 ft | 389 kts | 39° |
| 2026-05-05 19:09 | 50.25689 | -1.50494 | 21330 ft | 390 kts | 40° |
| 2026-05-05 19:09 | 50.27759 | -1.47749 | 21102 ft | 390 kts | 40° |
| 2026-05-05 19:09 | 50.29830 | -1.45000 | 20823 ft | 391 kts | 40° |
| 2026-05-05 19:09 | 50.31902 | -1.42246 | 20532 ft | 391 kts | 40° |
| 2026-05-05 19:10 | 50.33979 | -1.39482 | 20219 ft | 392 kts | 40° |
| 2026-05-05 19:10 | 50.36055 | -1.36716 | 19851 ft | 393 kts | 40° |
| 2026-05-05 19:10 | 50.38132 | -1.33945 | 19457 ft | 391 kts | 40° |
| 2026-05-05 19:10 | 50.40197 | -1.31187 | 19003 ft | 389 kts | 40° |
| 2026-05-05 19:11 | 50.42243 | -1.28449 | 18555 ft | 385 kts | 40° |
| 2026-05-05 19:11 | 50.44274 | -1.25728 | 18071 ft | 383 kts | 40° |
| 2026-05-05 19:11 | 50.46288 | -1.23027 | 17494 ft | 379 kts | 40° |
| 2026-05-05 19:11 | 50.48282 | -1.20342 | 16922 ft | 375 kts | 40° |
| 2026-05-05 19:12 | 50.50251 | -1.17684 | 16368 ft | 372 kts | 40° |
| 2026-05-05 19:12 | 50.52210 | -1.15052 | 15826 ft | 369 kts | 40° |
| 2026-05-05 19:12 | 50.54149 | -1.12441 | 15266 ft | 366 kts | 41° |
| 2026-05-05 19:12 | 50.55813 | -1.09501 | 14711 ft | 358 kts | 56° |
| 2026-05-05 19:13 | 50.56989 | -1.06103 | 14189 ft | 350 kts | 64° |
| 2026-05-05 19:13 | 50.58012 | -1.02668 | 13686 ft | 343 kts | 64° |
| 2026-05-05 19:13 | 50.59053 | -0.99334 | 13133 ft | 337 kts | 63° |
| 2026-05-05 19:13 | 50.60092 | -0.96137 | 13118 ft | 317 kts | 62° |
| 2026-05-05 19:14 | 50.61109 | -0.93090 | 13083 ft | 315 kts | 61° |
| 2026-05-05 19:14 | 50.62138 | -0.90021 | 13082 ft | 319 kts | 61° |
| 2026-05-05 19:14 | 50.63177 | -0.86923 | 13017 ft | 322 kts | 62° |
| 2026-05-05 19:14 | 50.64221 | -0.83792 | 12725 ft | 319 kts | 62° |
| 2026-05-05 19:15 | 50.65231 | -0.80745 | 12381 ft | 310 kts | 62° |
| 2026-05-05 19:15 | 50.66328 | -0.77873 | 12013 ft | 302 kts | 49° |
| 2026-05-05 19:15 | 50.67962 | -0.75904 | 11620 ft | 296 kts | 25° |
| 2026-05-05 19:15 | 50.69898 | -0.74874 | 11225 ft | 292 kts | 15° |
| 2026-05-05 19:16 | 50.71837 | -0.74010 | 10773 ft | 287 kts | 15° |
| 2026-05-05 19:16 | 50.73101 | -0.73432 | 10481 ft | 284 kts | 15° |
| 2026-05-05 19:16 | 50.74985 | -0.72567 | 10015 ft | 281 kts | 15° |
| 2026-05-05 19:16 | 50.76852 | -0.71701 | 9522 ft | 278 kts | 15° |
| 2026-05-05 19:17 | 50.78704 | -0.70839 | 8887 ft | 279 kts | 15° |
| 2026-05-05 19:17 | 50.80551 | -0.69980 | 8204 ft | 273 kts | 15° |
| 2026-05-05 19:17 | 50.82352 | -0.69143 | 7562 ft | 266 kts | 15° |
| 2026-05-05 19:17 | 50.84092 | -0.68330 | 7024 ft | 256 kts | 15° |
| 2026-05-05 19:18 | 50.85771 | -0.67549 | 6525 ft | 247 kts | 16° |
| 2026-05-05 19:18 | 50.87389 | -0.66795 | 6160 ft | 233 kts | 15° |
| 2026-05-05 19:18 | 50.88857 | -0.66114 | 6280 ft | 211 kts | 15° |
| 2026-05-05 19:18 | 50.90239 | -0.65464 | 6102 ft | 202 kts | 15° |
| 2026-05-05 19:19 | 50.91540 | -0.64844 | 5994 ft | 186 kts | 15° |
| 2026-05-05 19:19 | 50.92776 | -0.64266 | 6015 ft | 186 kts | 15° |
| 2026-05-05 19:19 | 50.94020 | -0.63688 | 6035 ft | 186 kts | 15° |
| 2026-05-05 19:19 | 50.95128 | -0.63165 | 6045 ft | 187 kts | 16° |
| 2026-05-05 19:20 | 50.96389 | -0.62571 | 5927 ft | 190 kts | 16° |
| 2026-05-05 19:20 | 50.97658 | -0.61975 | 5893 ft | 194 kts | 15° |
| 2026-05-05 19:20 | 50.99029 | -0.61328 | 5579 ft | 212 kts | 16° |
| 2026-05-05 19:20 | 51.00462 | -0.60664 | 5312 ft | 217 kts | 15° |
| 2026-05-05 19:21 | 51.00645 | -0.60580 | 5280 ft | 217 kts | 15° |
| 2026-05-05 19:21 | 51.02078 | -0.59868 | 5021 ft | 217 kts | 24° |
| 2026-05-05 19:21 | 51.03300 | -0.58438 | 4685 ft | 223 kts | 42° |
| 2026-05-05 19:21 | 51.04455 | -0.56732 | 4259 ft | 230 kts | 40° |
| 2026-05-05 19:22 | 51.05618 | -0.55070 | 4134 ft | 223 kts | 40° |
| 2026-05-05 19:22 | 51.06704 | -0.53518 | 4045 ft | 217 kts | 40° |
| 2026-05-05 19:22 | 51.07828 | -0.51912 | 3934 ft | 211 kts | 41° |
| 2026-05-05 19:22 | 51.08905 | -0.50378 | 3736 ft | 203 kts | 41° |
| 2026-05-05 19:23 | 51.09909 | -0.48889 | 3507 ft | 196 kts | 46° |
| 2026-05-05 19:23 | 51.10730 | -0.47276 | 3264 ft | 192 kts | 54° |
| 2026-05-05 19:23 | 51.11203 | -0.45278 | 3002 ft | 191 kts | 78° |
| 2026-05-05 19:23 | 51.11394 | -0.43309 | 3056 ft | 172 kts | 75° |
| 2026-05-05 19:24 | 51.11694 | -0.41517 | 2881 ft | 170 kts | 73° |
| 2026-05-05 19:24 | 51.11956 | -0.39713 | 2654 ft | 163 kts | 77° |
| 2026-05-05 19:24 | 51.12175 | -0.38018 | 2449 ft | 156 kts | 76° |
| 2026-05-05 19:24 | 51.12414 | -0.36353 | 2236 ft | 156 kts | 76° |
| 2026-05-05 19:25 | 51.12653 | -0.34664 | 2040 ft | 155 kts | 76° |
| 2026-05-05 19:25 | 51.12883 | -0.33001 | 1822 ft | 155 kts | 77° |
| 2026-05-05 19:25 | 51.13116 | -0.31338 | 1613 ft | 156 kts | 76° |
| 2026-05-05 19:25 | 51.13342 | -0.29686 | 1399 ft | 152 kts | 78° |
| 2026-05-05 19:26 | 51.13556 | -0.28128 | 1170 ft | 143 kts | 77° |
| 2026-05-05 19:26 | 51.13762 | -0.26654 | 921 ft | 135 kts | 77° |
| 2026-05-05 19:26 | 51.13956 | -0.25244 | 705 ft | 129 kts | 76° |
| 2026-05-05 19:26 | 51.14150 | -0.23889 | 576 ft | 127 kts | 76° |
| 2026-05-05 19:27 | 51.14335 | -0.22500 | 464 ft | 130 kts | 76° |
| 2026-05-05 19:27 | 51.14530 | -0.21087 | 313 ft | 132 kts | 77° |
| 2026-05-05 19:27 | 51.14723 | -0.19706 | 209 ft | 119 kts | 76° |
| 2026-05-05 19:27 | 51.14874 | -0.18612 | 212 ft | 77 kts | 77° |
| 2026-05-05 19:28 | 51.14988 | -0.17955 | 213 ft | 42 kts | 62° |
| 2026-05-05 19:28 | 51.15111 | -0.17758 | 204 ft | 13 kts | 351° |
| 2026-05-05 19:28 | 51.15154 | -0.17768 | 204 ft | 2 kts | 356° |
| 2026-05-05 19:28 | 51.15179 | -0.17748 | 204 ft | 3 kts | 52° |
| 2026-05-05 19:29 | 51.15189 | -0.17676 | 215 ft | 10 kts | 79° |
| 2026-05-05 19:29 | 51.15207 | -0.17532 | 208 ft | 15 kts | 78° |
| 2026-05-05 19:29 | 51.15221 | -0.17431 | 208 ft | 0 kts | 77° |
| 2026-05-05 19:30 | 51.15223 | -0.17423 | 208 ft | 3 kts | 77° |
| 2026-05-05 19:30 | 51.15232 | -0.17354 | 212 ft | 10 kts | 77° |
| 2026-05-05 19:30 | 51.15252 | -0.17210 | 204 ft | 16 kts | 78° |
| 2026-05-05 19:31 | 51.15278 | -0.17015 | 206 ft | 18 kts | 77° |
| 2026-05-05 19:31 | 51.15306 | -0.16811 | 211 ft | 20 kts | 77° |
| 2026-05-05 19:31 | 51.15287 | -0.16623 | 210 ft | 16 kts | 94° |
| 2026-05-05 19:31 | 51.15306 | -0.16448 | 213 ft | 16 kts | 78° |
| 2026-05-05 19:32 | 51.15324 | -0.16296 | 204 ft | 8 kts | 75° |
| 2026-05-05 19:32 | 51.15353 | -0.16279 | 204 ft | 3 kts | 359° |
| 2026-05-05 19:32 | 51.15368 | -0.16280 | 203 ft | 2 kts | 357° |
| 2026-05-05 19:32 | 51.15370 | -0.16280 | 203 ft | 0 kts | 357° |